Time;durP1;ratioP1;P1;durP2;ratioP2;P2;SDS_P1;SDS_P2;PMS_P1;PMS_P2;Temp;Humidity;BMP_temperature;BMP_pressure;BME280_temperature;BME280_humidity;BME280_pressure;Samples;Min_cycle;Max_cycle;Signal;HPM_P1;HPM_P2
2023/01/11 00:01:51;;;;;;;0.85;0.85;;;10.90;90.10;;;;;;5101606;28;20490;-60
2023/01/11 00:04:18;;;;;;;2.25;1.35;;;10.90;90.10;;;;;;5088224;28;20376;-60
2023/01/11 00:06:44;;;;;;;1.73;1.00;;;10.90;90.10;;;;;;5088958;28;20024;-60
2023/01/11 00:09:10;;;;;;;1.20;0.90;;;10.90;90.10;;;;;;5090725;28;20083;-60
2023/01/11 00:11:36;;;;;;;0.75;0.68;;;10.90;90.10;;;;;;5091698;28;20084;-59
2023/01/11 00:14:01;;;;;;;0.70;0.70;;;11.00;90.10;;;;;;5088923;28;20467;-59
2023/01/11 00:16:27;;;;;;;1.88;0.95;;;11.00;90.10;;;;;;5094585;28;20034;-60
2023/01/11 00:18:53;;;;;;;0.85;0.85;;;11.00;90.10;;;;;;5091077;28;20084;-60
2023/01/11 00:21:21;;;;;;;2.75;1.00;;;11.00;90.10;;;;;;5090807;28;20532;-60
2023/01/11 00:23:48;;;;;;;1.33;1.23;;;11.10;90.10;;;;;;5083269;28;20317;-60
2023/01/11 00:26:14;;;;;;;1.20;1.10;;;11.10;90.10;;;;;;5100405;28;20031;-60
2023/01/11 00:28:40;;;;;;;2.25;1.30;;;11.10;90.20;;;;;;5097967;28;20035;-59
2023/01/11 00:31:06;;;;;;;2.30;0.98;;;11.10;90.20;;;;;;5099451;28;20024;-59
2023/01/11 00:33:32;;;;;;;0.80;0.77;;;11.20;90.30;;;;;;5097319;28;20020;-58
2023/01/11 00:35:58;;;;;;;1.67;0.90;;;11.20;90.30;;;;;;5072159;28;20077;-59
2023/01/11 00:49:22;;;;;;;1.75;1.08;;;11.30;90.30;;;;;;5089585;28;20039;-60
2023/01/11 00:51:48;;;;;;;1.85;1.33;;;11.30;90.30;;;;;;5089353;28;20478;-60
2023/01/11 00:54:13;;;;;;;1.20;0.75;;;11.40;90.20;;;;;;5090209;28;20034;-65
2023/01/11 00:56:39;;;;;;;1.23;0.65;;;11.40;90.20;;;;;;5100310;28;20031;-65
2023/01/11 00:59:05;;;;;;;3.25;1.05;;;11.40;90.20;;;;;;5094729;28;20062;-65
2023/01/11 01:01:31;;;;;;;1.05;0.90;;;11.40;90.50;;;;;;5094413;28;20107;-65
2023/01/11 01:03:59;;;;;;;1.40;0.80;;;11.40;90.20;;;;;;5089800;28;20462;-66
2023/01/11 01:06:26;;;;;;;1.25;1.13;;;11.40;90.30;;;;;;5103337;28;20088;-66
2023/01/11 01:08:52;;;;;;;1.33;0.70;;;11.40;90.30;;;;;;5055217;28;20056;-64
2023/01/11 01:11:17;;;;;;;0.60;0.60;;;11.50;90.20;;;;;;5072541;28;20465;-65
2023/01/11 01:16:27;;;;;;;1.00;0.88;;;11.50;90.20;;;;;;5090562;28;20505;-64
2023/01/11 01:18:56;;;;;;;1.17;0.90;;;11.50;90.20;;;;;;5071888;28;20036;-65
2023/01/11 01:21:22;;;;;;;1.05;0.85;;;11.50;90.30;;;;;;5088386;28;20108;-65
2023/01/11 01:23:50;;;;;;;1.75;0.90;;;11.50;90.30;;;;;;5096979;28;20034;-65
2023/01/11 01:26:15;;;;;;;0.82;0.75;;;11.50;90.40;;;;;;5093559;28;20032;-59
2023/01/11 01:28:41;;;;;;;2.08;0.80;;;11.50;90.40;;;;;;5095011;28;20027;-59
2023/01/11 01:31:07;;;;;;;0.90;0.82;;;11.50;90.30;;;;;;5073350;28;20032;-59
2023/01/11 01:33:33;;;;;;;1.15;0.90;;;11.50;90.30;;;;;;5054240;28;20069;-59
2023/01/11 01:36:00;;;;;;;1.25;1.08;;;11.50;90.40;;;;;;5081716;28;20034;-59
2023/01/11 01:38:27;;;;;;;1.02;0.80;;;11.50;90.50;;;;;;5089935;28;20036;-64
2023/01/11 01:40:52;;;;;;;0.77;0.65;;;11.50;90.50;;;;;;5091705;28;20459;-65
2023/01/11 01:43:18;;;;;;;0.77;0.73;;;11.60;90.60;;;;;;5091504;28;20016;-65
2023/01/11 01:45:44;;;;;;;1.00;0.85;;;11.60;90.60;;;;;;5090505;28;20032;-65
2023/01/11 01:48:17;;;;;;;1.98;0.80;;;11.60;90.50;;;;;;5091013;28;20036;-65
2023/01/11 01:50:51;;;;;;;1.10;1.00;;;11.60;90.60;;;;;;5096725;28;20024;-65
2023/01/11 01:53:28;;;;;;;0.95;0.80;;;11.60;90.60;;;;;;5093138;28;20438;-60
2023/01/11 01:55:59;;;;;;;0.60;0.57;;;11.70;90.60;;;;;;5091217;28;20284;-60
2023/01/11 01:58:38;;;;;;;2.35;0.60;;;11.70;90.70;;;;;;5089276;28;20506;-60
2023/01/11 02:03:50;;;;;;;0.73;0.70;;;11.70;90.60;;;;;;5088808;28;20043;-59
2023/01/11 02:06:17;;;;;;;0.50;0.50;;;11.70;90.70;;;;;;5088712;28;20060;-59
2023/01/11 02:08:48;;;;;;;0.70;0.70;;;11.70;90.70;;;;;;5089499;28;20043;-60
2023/01/11 02:11:31;;;;;;;0.60;0.60;;;11.80;90.70;;;;;;5090096;28;20477;-60
2023/01/11 02:14:07;;;;;;;0.43;0.38;;;11.80;90.70;;;;;;5089376;28;20028;-59
2023/01/11 02:16:34;;;;;;;0.68;0.68;;;11.80;90.70;;;;;;5092065;28;20429;-59
2023/01/11 02:19:00;;;;;;;0.60;0.60;;;11.80;90.70;;;;;;5089187;28;20497;-64
2023/01/11 02:21:31;;;;;;;0.32;0.32;;;11.90;90.70;;;;;;5088859;28;20486;-65
2023/01/11 02:24:47;;;;;;;0.90;0.70;;;11.90;90.70;;;;;;5072338;28;20052;-64
2023/01/11 02:27:43;;;;;;;0.47;0.47;;;11.90;90.70;;;;;;5068241;28;20035;-59
2023/01/11 02:30:52;;;;;;;1.42;0.60;;;11.90;90.80;;;;;;5087051;28;20491;-59
2023/01/11 02:33:57;;;;;;;1.10;0.57;;;11.90;90.80;;;;;;5088222;28;20116;-60
2023/01/11 02:36:23;;;;;;;0.70;0.70;;;11.90;90.90;;;;;;5049166;28;20112;-59
2023/01/11 02:38:54;;;;;;;0.40;0.30;;;11.90;90.80;;;;;;5070108;28;20135;-59
2023/01/11 02:47:22;;;;;;;0.57;0.57;;;12.00;90.90;;;;;;5089029;28;20139;-59
2023/01/11 02:50:01;;;;;;;1.33;0.60;;;12.00;90.90;;;;;;5087991;28;20062;-65
2023/01/11 02:53:03;;;;;;;1.20;0.55;;;12.00;90.80;;;;;;5068779;28;20035;-65
2023/01/11 02:55:37;;;;;;;0.32;0.30;;;12.00;90.80;;;;;;5055864;28;20430;-65
2023/01/11 02:58:07;;;;;;;1.13;0.70;;;12.00;90.90;;;;;;5090748;28;20039;-65
2023/01/11 03:00:36;;;;;;;1.02;0.63;;;12.00;90.90;;;;;;5086368;28;20020;-65
2023/01/11 03:03:23;;;;;;;0.50;0.50;;;12.10;90.90;;;;;;5089543;28;20024;-65
2023/01/11 03:06:17;;;;;;;0.60;0.60;;;12.10;90.90;;;;;;5071826;28;20102;-65
2023/01/11 03:09:16;;;;;;;0.40;0.40;;;12.10;90.90;;;;;;5068530;28;20032;-65
2023/01/11 03:15:12;;;;;;;0.65;0.50;;;12.20;90.90;;;;;;5097277;28;20054;-65
2023/01/11 03:18:00;;;;;;;0.47;0.47;;;12.20;91.00;;;;;;5090772;28;20039;-60
2023/01/11 03:20:43;;;;;;;0.47;0.47;;;12.10;90.90;;;;;;5092670;28;20529;-60
2023/01/11 03:23:09;;;;;;;0.38;0.38;;;12.20;91.00;;;;;;5078655;28;20023;-60
2023/01/11 03:26:06;;;;;;;0.50;0.47;;;12.20;91.10;;;;;;5096108;28;20035;-60
2023/01/11 03:29:20;;;;;;;0.80;0.60;;;12.20;91.10;;;;;;5075100;28;20035;-60
2023/01/11 03:32:03;;;;;;;0.40;0.40;;;12.20;91.00;;;;;;5019106;28;20038;-60
2023/01/11 03:35:07;;;;;;;1.23;0.57;;;12.20;91.00;;;;;;5097200;28;20416;-60
2023/01/11 03:37:42;;;;;;;1.00;0.40;;;12.20;91.10;;;;;;5060146;28;20039;-65
2023/01/11 03:40:15;;;;;;;0.40;0.40;;;12.30;91.00;;;;;;5094079;28;20090;-64
2023/01/11 03:45:34;;;;;;;0.50;0.40;;;12.30;91.10;;;;;;5093405;28;20092;-64
2023/01/11 03:48:02;;;;;;;0.63;0.40;;;12.30;91.10;;;;;;5093320;28;20020;-64
2023/01/11 03:50:30;;;;;;;0.30;0.30;;;12.40;91.10;;;;;;5092323;28;20030;-64
2023/01/11 03:52:59;;;;;;;0.60;0.60;;;12.40;91.00;;;;;;5092442;28;20069;-64
2023/01/11 03:55:28;;;;;;;0.63;0.60;;;12.40;91.00;;;;;;5094061;28;20028;-64
2023/01/11 03:57:56;;;;;;;0.32;0.32;;;12.40;91.00;;;;;;5094771;28;20031;-64
2023/01/11 04:00:23;;;;;;;0.47;0.30;;;12.50;91.00;;;;;;5095094;28;20024;-65
2023/01/11 04:02:52;;;;;;;0.55;0.50;;;12.40;90.90;;;;;;5101616;28;20036;-58
2023/01/11 04:05:18;;;;;;;0.60;0.40;;;12.50;90.90;;;;;;5090060;28;20020;-59
2023/01/11 04:07:44;;;;;;;0.40;0.40;;;12.50;90.90;;;;;;5093216;28;20036;-64
2023/01/11 04:10:10;;;;;;;0.65;0.57;;;12.50;91.00;;;;;;5096270;28;20046;-64
2023/01/11 04:12:36;;;;;;;0.47;0.45;;;12.60;91.00;;;;;;5089464;28;20020;-59
2023/01/11 04:15:04;;;;;;;0.55;0.55;;;12.60;90.90;;;;;;5095703;28;20474;-60
2023/01/11 04:17:30;;;;;;;0.40;0.40;;;12.60;90.90;;;;;;5091689;28;20045;-59
2023/01/11 04:19:56;;;;;;;0.50;0.40;;;12.60;90.90;;;;;;5077528;28;20119;-59
2023/01/11 04:22:21;;;;;;;0.30;0.30;;;12.60;90.90;;;;;;5093457;28;20182;-60
2023/01/11 04:24:47;;;;;;;0.40;0.40;;;12.60;90.90;;;;;;5093485;28;20475;-60
2023/01/11 04:27:13;;;;;;;0.40;0.40;;;12.60;90.90;;;;;;5094732;28;20101;-64
2023/01/11 04:29:38;;;;;;;0.60;0.60;;;12.70;90.90;;;;;;5096985;28;20039;-65
2023/01/11 04:32:04;;;;;;;0.50;0.50;;;12.60;90.90;;;;;;5095510;28;20036;-65
2023/01/11 04:34:30;;;;;;;0.57;0.57;;;12.70;91.00;;;;;;5097992;28;20387;-59
2023/01/11 04:36:55;;;;;;;1.05;0.50;;;12.70;91.00;;;;;;5091128;28;20020;-65
2023/01/11 04:39:21;;;;;;;0.30;0.30;;;12.70;91.00;;;;;;5078027;28;20089;-64
2023/01/11 04:44:31;;;;;;;0.40;0.40;;;12.70;91.00;;;;;;5087943;28;20048;-65
2023/01/11 04:46:57;;;;;;;0.45;0.40;;;12.70;90.90;;;;;;5076947;28;20475;-59
2023/01/11 04:49:22;;;;;;;1.08;0.70;;;12.80;91.00;;;;;;5091981;28;20028;-59
2023/01/11 04:51:48;;;;;;;0.70;0.63;;;12.70;91.00;;;;;;5090704;28;20371;-60
2023/01/11 04:54:15;;;;;;;0.90;0.80;;;12.80;91.10;;;;;;5091105;28;20024;-65
2023/01/11 04:56:40;;;;;;;1.00;0.75;;;12.80;91.10;;;;;;5094194;28;20039;-64
2023/01/11 04:59:06;;;;;;;0.63;0.55;;;12.80;91.10;;;;;;5076430;28;20478;-59
2023/01/11 05:01:32;;;;;;;1.08;0.73;;;12.80;91.10;;;;;;5090067;28;20380;-60
2023/01/11 05:03:57;;;;;;;0.80;0.75;;;12.80;91.10;;;;;;5072464;28;20032;-60
2023/01/11 05:06:23;;;;;;;0.85;0.70;;;12.90;91.10;;;;;;5093384;28;20092;-59
2023/01/11 05:08:49;;;;;;;0.63;0.45;;;12.90;91.00;;;;;;5083119;28;20075;-60
2023/01/11 05:11:15;;;;;;;1.20;0.77;;;12.90;91.00;;;;;;5089911;28;20101;-59
2023/01/11 05:13:41;;;;;;;1.65;0.93;;;12.90;91.00;;;;;;5088501;28;20032;-59
2023/01/11 05:16:24;;;;;;;1.13;0.80;;;12.90;91.00;;;;;;5073802;28;20028;-59
2023/01/11 05:18:54;;;;;;;1.83;1.02;;;13.00;91.00;;;;;;5090657;28;20032;-60
2023/01/11 05:21:22;;;;;;;0.90;0.70;;;12.90;91.00;;;;;;5093515;28;20039;-59
2023/01/11 05:23:48;;;;;;;3.20;1.30;;;13.00;91.00;;;;;;5091547;28;20455;-59
2023/01/11 05:26:21;;;;;;;3.90;1.45;;;13.00;91.00;;;;;;5094100;28;20026;-59
2023/01/11 05:28:47;;;;;;;1.17;0.88;;;13.00;91.00;;;;;;5073958;28;20364;-59
2023/01/11 05:31:13;;;;;;;1.88;0.98;;;13.00;91.00;;;;;;5094335;28;20016;-59
2023/01/11 05:33:39;;;;;;;3.92;1.20;;;13.00;91.00;;;;;;5094391;28;20035;-59
2023/01/11 05:36:08;;;;;;;1.10;1.00;;;13.00;91.00;;;;;;5099971;28;20024;-60
2023/01/11 05:38:33;;;;;;;2.10;1.33;;;13.00;91.00;;;;;;5077693;28;20031;-60
2023/01/11 05:41:01;;;;;;;2.97;1.52;;;13.00;90.90;;;;;;5089366;28;20028;-60
2023/01/11 05:43:28;;;;;;;2.08;1.27;;;13.00;90.90;;;;;;5076689;28;20035;-60
2023/01/11 05:45:55;;;;;;;2.35;1.30;;;13.00;90.90;;;;;;5097643;28;20028;-60
2023/01/11 05:48:22;;;;;;;1.58;1.17;;;13.00;91.00;;;;;;5085862;28;20832;-60
2023/01/11 05:50:52;;;;;;;4.80;1.38;;;13.00;90.90;;;;;;5085689;28;20043;-60
2023/01/11 05:53:19;;;;;;;3.85;1.85;;;13.00;90.90;;;;;;5086799;28;20080;-59
2023/01/11 05:55:52;;;;;;;1.67;1.08;;;13.00;90.90;;;;;;5090792;28;20363;-59
2023/01/11 05:58:17;;;;;;;5.30;1.55;;;13.00;90.90;;;;;;5069783;28;20432;-59
2023/01/11 06:00:46;;;;;;;4.95;1.60;;;13.00;90.80;;;;;;5070960;28;20016;-60
2023/01/11 06:03:11;;;;;;;3.70;1.77;;;13.00;90.80;;;;;;5071517;28;20039;-64
2023/01/11 06:05:37;;;;;;;1.90;1.48;;;13.00;90.80;;;;;;5079160;28;20379;-59
2023/01/11 06:08:03;;;;;;;2.42;1.30;;;13.00;90.80;;;;;;5086968;28;20474;-60
2023/01/11 06:10:28;;;;;;;1.52;1.38;;;13.00;90.80;;;;;;5087444;28;20039;-65
2023/01/11 06:13:25;;;;;;;2.45;1.77;;;13.00;90.80;;;;;;5088581;28;20047;-60
2023/01/11 06:15:40;;;;;;;4.88;1.63;;;13.00;90.80;;;;;;5090240;28;20040;-65
2023/01/11 06:18:05;;;;;;;3.47;2.05;;;13.00;90.80;;;;;;5091167;28;20055;-65
2023/01/11 06:20:31;;;;;;;3.97;1.52;;;13.00;90.80;;;;;;5096381;28;20161;-65
2023/01/11 06:22:57;;;;;;;3.53;1.20;;;13.00;90.70;;;;;;5090408;28;20108;-65
2023/01/11 06:25:22;;;;;;;3.13;1.70;;;12.90;90.70;;;;;;5087209;28;20032;-60
2023/01/11 06:27:48;;;;;;;4.05;1.73;;;12.90;90.70;;;;;;5067881;28;20111;-60
2023/01/11 06:30:14;;;;;;;5.68;2.10;;;12.90;91.00;;;;;;5088363;28;20031;-65
2023/01/11 06:32:39;;;;;;;3.10;1.55;;;12.80;90.60;;;;;;5090206;28;20028;-64
2023/01/11 06:35:05;;;;;;;3.38;1.67;;;12.90;90.70;;;;;;5071183;28;20513;-65
2023/01/11 06:37:31;;;;;;;3.85;1.83;;;12.90;90.60;;;;;;5093285;28;20093;-64
2023/01/11 06:39:57;;;;;;;7.88;1.67;;;12.80;90.50;;;;;;5093390;28;20102;-59
2023/01/11 06:42:23;;;;;;;1.70;1.20;;;12.80;90.50;;;;;;5089896;28;20040;-59
2023/01/11 06:44:48;;;;;;;7.55;2.00;;;12.80;90.50;;;;;;5069657;28;20036;-60
2023/01/11 06:47:14;;;;;;;5.45;1.98;;;12.80;90.40;;;;;;5088407;28;20053;-59
2023/01/11 06:49:39;;;;;;;1.25;1.15;;;12.80;90.40;;;;;;5096207;28;20036;-59
2023/01/11 06:52:05;;;;;;;3.80;1.70;;;12.80;90.40;;;;;;5093294;28;20370;-59
2023/01/11 06:54:31;;;;;;;8.63;2.30;;;12.70;90.20;;;;;;5094817;28;20529;-65
2023/01/11 06:56:56;;;;;;;6.53;2.58;;;12.70;90.30;;;;;;5096182;28;20090;-65
2023/01/11 06:59:22;;;;;;;5.18;1.65;;;12.70;90.30;;;;;;5095172;28;20034;-65
2023/01/11 07:01:47;;;;;;;5.35;1.90;;;12.70;90.30;;;;;;5091074;28;20158;-60
2023/01/11 07:04:13;;;;;;;4.50;1.40;;;12.70;90.10;;;;;;5091209;28;20297;-60
2023/01/11 07:06:39;;;;;;;4.30;1.52;;;12.60;90.10;;;;;;5058167;28;20032;-64
2023/01/11 07:09:05;;;;;;;6.68;1.45;;;12.70;90.10;;;;;;5092624;28;20525;-62
2023/01/11 07:11:33;;;;;;;6.25;1.77;;;12.60;90.00;;;;;;5097557;28;20062;-63
2023/01/11 07:13:59;;;;;;;2.17;0.88;;;12.60;90.00;;;;;;5091757;28;20032;-63
2023/01/11 07:16:25;;;;;;;8.60;1.55;;;12.60;90.00;;;;;;5093801;28;20189;-63
2023/01/11 07:18:50;;;;;;;7.45;2.00;;;12.60;89.90;;;;;;5096293;28;20039;-63
2023/01/11 07:21:16;;;;;;;7.32;1.13;;;12.50;89.60;;;;;;5077548;28;20032;-63
2023/01/11 07:23:41;;;;;;;0.88;0.65;;;12.50;89.50;;;;;;5091250;28;20065;-65
2023/01/11 07:26:07;;;;;;;5.40;1.13;;;12.50;89.60;;;;;;5102278;28;20071;-68
2023/01/11 07:28:33;;;;;;;6.28;1.10;;;12.50;89.50;;;;;;5093478;28;20027;-70
2023/01/11 07:30:58;;;;;;;4.95;2.08;;;12.40;89.20;;;;;;5091509;28;20043;-61
2023/01/11 07:33:25;;;;;;;11.73;2.55;;;12.40;88.70;;;;;;5096003;28;20511;-69
2023/01/11 07:35:51;;;;;;;4.45;1.58;;;12.30;88.70;;;;;;5092920;28;20023;-69
2023/01/11 07:38:17;;;;;;;5.80;1.30;;;12.30;88.70;;;;;;5101014;28;20069;-61
2023/01/11 07:40:42;;;;;;;6.55;1.52;;;12.30;88.90;;;;;;5064994;28;20027;-61
2023/01/11 07:43:14;;;;;;;3.20;1.80;;;12.30;88.70;;;;;;5093284;28;20032;-61
2023/01/11 07:45:43;;;;;;;3.85;1.00;;;12.30;88.40;;;;;;5094151;28;20035;-61
2023/01/11 07:48:10;;;;;;;7.18;1.35;;;12.30;88.20;;;;;;5097158;28;20575;-61
2023/01/11 07:50:38;;;;;;;7.60;1.88;;;12.20;88.00;;;;;;5100236;28;20031;-61
2023/01/11 07:53:04;;;;;;;3.97;1.73;;;12.20;88.10;;;;;;5091129;28;20119;-63
2023/01/11 07:55:29;;;;;;;2.45;1.05;;;12.20;88.20;;;;;;5092277;28;20562;-61
2023/01/11 07:57:56;;;;;;;6.15;1.60;;;12.30;88.00;;;;;;5072805;28;20040;-69
2023/01/11 08:00:23;;;;;;;1.50;1.40;;;12.30;87.70;;;;;;5059469;28;20059;-61
2023/01/11 08:02:51;;;;;;;4.72;1.90;;;12.20;87.70;;;;;;5092058;28;20161;-69
2023/01/11 08:05:18;;;;;;;4.13;1.33;;;12.20;87.70;;;;;;5099171;28;20028;-61
2023/01/11 08:07:43;;;;;;;10.13;2.22;;;12.20;87.50;;;;;;5071694;28;20721;-60
2023/01/11 08:10:10;;;;;;;5.50;1.75;;;12.20;87.50;;;;;;5099671;28;20055;-60
2023/01/11 08:15:26;;;;;;;9.98;2.15;;;12.20;87.30;;;;;;5098475;28;20043;-67
2023/01/11 08:17:51;;;;;;;13.50;1.90;;;12.20;87.00;;;;;;5078601;28;20047;-67
2023/01/11 08:20:17;;;;;;;3.33;1.33;;;12.20;86.90;;;;;;5085709;28;20032;-67
2023/01/11 08:22:43;;;;;;;2.95;1.48;;;12.10;86.70;;;;;;5071818;28;20410;-60
2023/01/11 08:25:10;;;;;;;2.97;1.45;;;12.10;86.90;;;;;;5072108;28;20035;-60
2023/01/11 08:27:35;;;;;;;7.32;1.65;;;12.10;86.90;;;;;;5089773;28;20039;-66
2023/01/11 08:30:01;;;;;;;7.18;1.92;;;12.00;86.70;;;;;;5087162;28;20032;-66
2023/01/11 08:32:28;;;;;;;4.10;1.77;;;12.00;86.60;;;;;;5079766;28;20643;-66
2023/01/11 08:34:53;;;;;;;5.65;1.33;;;12.00;86.50;;;;;;5065210;28;20111;-66
2023/01/11 08:37:19;;;;;;;3.53;1.70;;;12.00;86.40;;;;;;5085018;28;20470;-59
2023/01/11 08:39:45;;;;;;;5.95;1.27;;;12.00;85.90;;;;;;5088371;28;20066;-59
2023/01/11 08:42:11;;;;;;;5.50;1.23;;;11.90;85.90;;;;;;5088639;28;20035;-59
2023/01/11 08:44:36;;;;;;;4.57;1.15;;;11.90;86.00;;;;;;5087582;28;20054;-68
2023/01/11 08:47:02;;;;;;;3.10;1.77;;;11.90;86.00;;;;;;5097816;28;20513;-58
2023/01/11 08:49:29;;;;;;;11.27;2.30;;;11.90;85.90;;;;;;5086112;28;20482;-59
2023/01/11 08:51:55;;;;;;;12.55;2.55;;;11.90;86.00;;;;;;5089373;28;20119;-60
2023/01/11 08:54:20;;;;;;;3.95;1.52;;;11.90;85.80;;;;;;5088861;28;20119;-60
2023/01/11 08:56:46;;;;;;;3.80;1.30;;;11.90;85.90;;;;;;5070236;28;20051;-60
2023/01/11 08:59:12;;;;;;;2.67;1.15;;;11.90;85.70;;;;;;5087292;28;20467;-60
2023/01/11 09:01:38;;;;;;;3.42;1.00;;;11.90;85.40;;;;;;5087841;28;20096;-66
2023/01/11 09:04:04;;;;;;;6.80;1.45;;;11.90;85.40;;;;;;5053333;28;20032;-66
2023/01/11 09:06:30;;;;;;;3.42;1.25;;;11.90;85.40;;;;;;5089786;28;20452;-64
2023/01/11 09:08:55;;;;;;;3.72;1.63;;;11.90;85.40;;;;;;5068334;28;20083;-66
2023/01/11 09:14:05;;;;;;;4.05;1.85;;;11.80;84.70;;;;;;5062104;28;20036;-61
2023/01/11 09:16:31;;;;;;;3.17;1.10;;;11.80;85.00;;;;;;5063273;28;20395;-66
2023/01/11 09:18:57;;;;;;;1.10;0.90;;;11.80;85.00;;;;;;5051253;28;20118;-66
2023/01/11 09:21:23;;;;;;;2.38;1.33;;;11.80;85.00;;;;;;5037647;28;20028;-65
2023/01/11 09:23:48;;;;;;;6.35;1.45;;;11.70;85.00;;;;;;5064336;28;20058;-59
2023/01/11 09:26:14;;;;;;;4.28;1.77;;;11.80;84.80;;;;;;5058075;28;20033;-60
2023/01/11 09:28:40;;;;;;;1.65;1.05;;;11.70;84.90;;;;;;5062507;28;20032;-65
2023/01/11 09:31:07;;;;;;;2.50;1.70;;;11.80;84.90;;;;;;5067595;28;20023;-66
2023/01/11 09:33:37;;;;;;;5.60;1.55;;;11.70;84.70;;;;;;5057406;28;20049;-66
2023/01/11 09:36:03;;;;;;;3.15;1.35;;;11.70;84.60;;;;;;5064417;28;20471;-66
2023/01/11 09:38:29;;;;;;;6.90;2.25;;;11.70;84.80;;;;;;5057003;28;20043;-67
2023/01/11 09:41:26;;;;;;;2.63;1.42;;;11.60;84.40;;;;;;5062740;28;20032;-66
2023/01/11 09:44:15;;;;;;;5.55;1.67;;;11.60;84.50;;;;;;5053473;28;20024;-66
2023/01/11 09:46:45;;;;;;;9.27;2.03;;;11.50;84.70;;;;;;5065579;28;20043;-66
2023/01/11 09:49:23;;;;;;;6.00;1.63;;;11.50;84.70;;;;;;5059898;28;20028;-65
2023/01/11 09:51:50;;;;;;;2.95;1.10;;;11.50;84.70;;;;;;5062473;28;20013;-66
2023/01/11 09:54:26;;;;;;;3.40;1.90;;;11.50;84.80;;;;;;5063442;28;20033;-66
2023/01/11 09:57:44;;;;;;;5.30;1.98;;;11.50;84.60;;;;;;5059824;28;20037;-66
2023/01/11 10:00:22;;;;;;;5.05;1.58;;;11.40;84.60;;;;;;4998884;28;20055;-65
2023/01/11 10:03:02;;;;;;;5.38;1.98;;;11.30;84.80;;;;;;5064925;28;20024;-60
2023/01/11 10:05:41;;;;;;;4.53;1.50;;;11.40;84.90;;;;;;5060348;28;20396;-66
2023/01/11 10:08:46;;;;;;;11.35;1.95;;;11.40;85.30;;;;;;5060672;28;20029;-64
2023/01/11 10:11:26;;;;;;;6.50;1.75;;;11.40;84.60;;;;;;5079950;28;20051;-59
2023/01/11 10:14:24;;;;;;;7.85;2.10;;;11.40;84.80;;;;;;5088778;28;20031;-66
2023/01/11 10:17:16;;;;;;;5.13;2.20;;;11.40;84.70;;;;;;5089356;28;20030;-66
2023/01/11 10:19:48;;;;;;;11.48;1.50;;;11.50;84.50;;;;;;5097413;28;20028;-66
2023/01/11 10:22:19;;;;;;;8.07;2.22;;;11.50;84.30;;;;;;5089368;28;20028;-66
2023/01/11 10:24:55;;;;;;;5.13;2.10;;;11.60;84.20;;;;;;5070109;28;20024;-65
2023/01/11 10:27:37;;;;;;;7.13;1.90;;;11.60;83.90;;;;;;5076957;28;20061;-59
2023/01/11 10:30:33;;;;;;;2.47;1.20;;;11.70;84.00;;;;;;5086455;28;20297;-59
2023/01/11 10:38:53;;;;;;;6.50;2.00;;;14.10;78.60;;;;;;5087343;28;20051;-66
2023/01/11 10:41:36;;;;;;;5.95;1.63;;;14.90;74.20;;;;;;5087341;28;20107;-60
2023/01/11 10:44:08;;;;;;;6.68;2.67;;;15.30;71.50;;;;;;5091330;28;20028;-66
2023/01/11 10:46:43;;;;;;;;;;;14.80;71.90;;;;;;5072163;28;20028;-60
2023/01/11 10:49:19;;;;;;;3.15;1.50;;;14.10;73.30;;;;;;5085849;28;20363;-66
2023/01/11 10:51:48;;;;;;;10.30;1.67;;;13.60;75.80;;;;;;5086678;28;20024;-59
2023/01/11 10:54:21;;;;;;;4.93;1.45;;;13.30;76.90;;;;;;5089283;28;20538;-66
2023/01/11 10:57:01;;;;;;;6.28;1.95;;;13.10;77.30;;;;;;5092289;28;20028;-60
2023/01/11 10:59:30;;;;;;;5.18;1.90;;;12.80;78.10;;;;;;5085025;28;20035;-59
2023/01/11 11:02:12;;;;;;;7.80;2.03;;;12.50;78.90;;;;;;5090466;28;20032;-60
2023/01/11 11:04:47;;;;;;;6.88;1.88;;;12.40;79.30;;;;;;5087761;28;20104;-60
2023/01/11 11:07:23;;;;;;;6.68;2.58;;;12.40;79.70;;;;;;5087476;28;20028;-60
2023/01/11 11:10:07;;;;;;;3.65;2.15;;;12.50;79.90;;;;;;5096985;28;20032;-60
2023/01/11 11:12:37;;;;;;;8.55;1.67;;;12.60;79.10;;;;;;5087970;28;20107;-66
2023/01/11 11:15:18;;;;;;;10.95;1.90;;;12.70;78.50;;;;;;5092014;28;21037;-66
2023/01/11 11:17:51;;;;;;;4.68;1.75;;;12.80;78.00;;;;;;5090437;28;20380;-66
2023/01/11 11:20:22;;;;;;;2.63;1.20;;;12.80;78.10;;;;;;5071200;28;20032;-60
2023/01/11 11:22:53;;;;;;;4.25;2.10;;;13.20;77.70;;;;;;5088030;28;20019;-60
2023/01/11 11:25:26;;;;;;;6.63;2.15;;;14.20;76.10;;;;;;5088228;28;20036;-59
2023/01/11 11:27:59;;;;;;;5.05;1.38;;;15.20;73.70;;;;;;5086031;28;20050;-67
2023/01/11 11:30:37;;;;;;;5.03;1.33;;;16.50;69.20;;;;;;5086092;28;20032;-67
2023/01/11 11:33:12;;;;;;;7.50;1.63;;;17.20;65.20;;;;;;5086321;28;20046;-60
2023/01/11 11:35:45;;;;;;;5.20;1.38;;;17.00;64.50;;;;;;5092818;28;20561;-66
2023/01/11 11:38:22;;;;;;;4.38;1.60;;;17.30;64.20;;;;;;5095765;28;20039;-60
2023/01/11 11:41:05;;;;;;;2.38;1.27;;;17.50;61.80;;;;;;5092303;28;20108;-66
2023/01/11 11:43:35;;;;;;;;;;;17.40;62.00;;;;;;5104479;28;20393;-59
2023/01/11 11:46:03;;;;;;;3.45;1.27;;;17.00;62.50;;;;;;5093572;28;19911;-60
2023/01/11 11:48:33;;;;;;;5.28;1.13;;;16.50;64.60;;;;;;5096502;28;20286;-60
2023/01/11 11:51:03;;;;;;;2.15;1.27;;;16.80;64.60;;;;;;5090231;28;20031;-66
2023/01/11 11:53:34;;;;;;;5.25;1.73;;;16.70;63.30;;;;;;5102994;28;20031;-66
2023/01/11 11:56:16;;;;;;;5.70;1.92;;;16.20;63.50;;;;;;5087706;28;20106;-66
2023/01/11 11:58:43;;;;;;;3.00;1.40;;;15.90;64.60;;;;;;5070630;28;20098;-60
2023/01/11 12:01:25;;;;;;;5.82;2.00;;;15.70;65.50;;;;;;5086826;28;20024;-60
2023/01/11 12:03:54;;;;;;;5.47;1.60;;;15.40;65.20;;;;;;5090218;28;21152;-66
2023/01/11 12:06:26;;;;;;;1.02;0.85;;;15.80;65.80;;;;;;5083135;28;20035;-66
2023/01/11 12:08:53;;;;;;;;;;;16.90;63.10;;;;;;5097315;28;20101;-60
2023/01/11 12:11:28;;;;;;;4.13;1.30;;;17.20;61.10;;;;;;5093623;28;20359;-60
2023/01/11 12:14:09;;;;;;;3.08;1.25;;;17.50;61.00;;;;;;5092494;28;20032;-60
2023/01/11 12:16:40;;;;;;;3.47;1.58;;;17.70;59.80;;;;;;5074198;28;20034;-66
2023/01/11 12:19:26;;;;;;;2.20;0.95;;;17.60;60.10;;;;;;5091927;28;20027;-66
2023/01/11 12:21:52;;;;;;;4.10;1.48;;;17.30;60.40;;;;;;5091102;28;20034;-60
2023/01/11 12:24:19;;;;;;;6.00;1.30;;;16.60;61.90;;;;;;5091365;28;20035;-60
2023/01/11 12:27:11;;;;;;;3.15;1.20;;;16.20;62.00;;;;;;5088333;28;20103;-60
2023/01/11 12:30:07;;;;;;;16.38;2.65;;;15.60;64.00;;;;;;5088555;28;20734;-65
2023/01/11 12:33:11;;;;;;;3.25;1.67;;;15.00;65.00;;;;;;5089823;28;20032;-59
2023/01/11 12:35:45;;;;;;;2.78;1.10;;;14.50;66.10;;;;;;5090468;28;20028;-66
2023/01/11 12:38:36;;;;;;;9.30;1.70;;;14.00;67.50;;;;;;5090442;28;20034;-66
2023/01/11 12:41:42;;;;;;;7.47;1.92;;;13.70;68.40;;;;;;5089877;28;20462;-60
2023/01/11 12:44:17;;;;;;;2.67;1.00;;;13.40;69.50;;;;;;5090503;28;20110;-60
2023/01/11 12:46:52;;;;;;;3.60;1.20;;;13.10;70.40;;;;;;5087794;28;20035;-59
2023/01/11 12:49:37;;;;;;;5.75;1.25;;;13.00;70.90;;;;;;5096282;28;20401;-60
2023/01/11 12:52:05;;;;;;;6.93;1.45;;;13.00;70.90;;;;;;5091229;28;20020;-66
2023/01/11 12:54:53;;;;;;;7.93;1.45;;;12.80;70.60;;;;;;5090279;28;20028;-66
2023/01/11 12:58:00;;;;;;;7.55;1.88;;;12.80;70.50;;;;;;5090114;28;20032;-65
2023/01/11 13:00:38;;;;;;;6.32;1.63;;;13.00;69.50;;;;;;5072957;28;20085;-60
2023/01/11 13:03:32;;;;;;;8.32;2.38;;;13.40;68.30;;;;;;5092122;28;20024;-59
2023/01/11 13:06:35;;;;;;;7.78;1.75;;;14.10;66.70;;;;;;5092198;28;20091;-59
2023/01/11 13:09:07;;;;;;;4.75;1.60;;;14.70;64.70;;;;;;5089299;28;20396;-66
2023/01/11 13:11:58;;;;;;;8.30;1.60;;;14.60;64.50;;;;;;5090643;28;20028;-66
2023/01/11 13:14:26;;;;;;;7.65;1.10;;;14.40;65.10;;;;;;5087530;28;20491;-66
2023/01/11 13:17:18;;;;;;;7.90;2.25;;;14.50;64.80;;;;;;5093195;28;20028;-66
2023/01/11 13:20:14;;;;;;;7.28;1.98;;;14.10;64.40;;;;;;5092029;28;20024;-66
2023/01/11 13:22:47;;;;;;;2.28;1.10;;;13.70;65.80;;;;;;5089591;28;20449;-66
2023/01/11 13:25:18;;;;;;;4.90;1.23;;;13.30;67.20;;;;;;5092918;28;20457;-66
2023/01/11 13:27:45;;;;;;;1.70;1.23;;;13.20;67.70;;;;;;5094466;28;20027;-66
2023/01/11 13:30:13;;;;;;;8.52;1.35;;;13.00;68.20;;;;;;5091904;28;20431;-66
2023/01/11 13:32:42;;;;;;;6.70;1.60;;;13.40;68.40;;;;;;5090063;28;20028;-67
2023/01/11 13:35:22;;;;;;;4.95;1.60;;;14.00;66.80;;;;;;5090001;28;20596;-60
2023/01/11 13:38:04;;;;;;;9.02;1.58;;;14.70;65.40;;;;;;5088825;28;20432;-60
2023/01/11 13:40:45;;;;;;;8.05;1.73;;;15.40;63.10;;;;;;5092419;28;20024;-60
2023/01/11 13:43:36;;;;;;;5.18;1.10;;;15.30;62.50;;;;;;5100069;28;20027;-65
2023/01/11 13:46:22;;;;;;;3.25;1.42;;;14.70;63.70;;;;;;5078785;28;20051;-65
2023/01/11 13:49:10;;;;;;;8.00;1.77;;;14.20;64.80;;;;;;5093712;28;20031;-65
2023/01/11 13:51:49;;;;;;;6.38;1.63;;;13.80;65.80;;;;;;5090716;28;20097;-59
2023/01/11 13:54:22;;;;;;;8.27;2.10;;;13.40;66.90;;;;;;5096988;28;20450;-59
2023/01/11 13:57:05;;;;;;;5.00;1.90;;;13.20;67.60;;;;;;5093137;28;20031;-59